createdAt,value
2023-04-02T00:00:36.369Z,99580.27
2023-04-02T00:03:24.136Z,99583.88
2023-04-02T00:05:56.177Z,99591.04
2023-04-02T00:08:27.113Z,99594.92
2023-04-02T00:11:01.494Z,99595.53
2023-04-02T00:13:43.901Z,99601.58
2023-04-02T00:16:14.655Z,99605.27
2023-04-02T00:18:51.468Z,99610.20
2023-04-02T00:21:24.410Z,99613.10
2023-04-02T00:23:55.569Z,99619.05
2023-04-02T00:26:42.826Z,99622.01
2023-04-02T00:29:13.892Z,99624.58
2023-04-02T00:31:44.879Z,99629.96
2023-04-02T00:34:21.562Z,99633.80
2023-04-02T00:36:51.598Z,99632.15
2023-04-02T00:39:24.941Z,99642.87
2023-04-02T00:42:06.338Z,99645.70
2023-04-02T00:44:43.256Z,99643.39
2023-04-02T00:47:20.368Z,99649.54
2023-04-02T00:49:51.520Z,99656.13
2023-04-02T00:52:23.704Z,99652.08
2023-04-02T00:55:10.515Z,99659.82
2023-04-02T00:57:42.130Z,99664.67
2023-04-02T01:00:23.872Z,99666.71
2023-04-02T01:03:35.351Z,99670.13
2023-04-02T01:06:12.833Z,99675.52
2023-04-02T01:09:09.473Z,99675.85
2023-04-02T01:11:55.482Z,99682.08
2023-04-02T01:14:23.647Z,99684.86
2023-04-02T01:17:30.656Z,99688.95
2023-04-02T01:20:23.809Z,99689.84
2023-04-02T01:23:05.912Z,99692.51
2023-04-02T01:26:09.503Z,99697.50
2023-04-02T01:29:01.169Z,99705.94
2023-04-02T01:31:30.603Z,99710.36
2023-04-02T01:33:58.420Z,99712.17
2023-04-02T01:36:42.574Z,99713.47
2023-04-02T01:39:43.676Z,99716.48
2023-04-02T01:42:20.639Z,99721.55
2023-04-02T01:44:51.603Z,99728.08
2023-04-02T01:47:22.844Z,99730.76
2023-04-02T01:49:56.588Z,99731.75
2023-04-02T01:52:37.518Z,99736.38
2023-04-02T01:55:08.005Z,99737.04
2023-04-02T01:57:36.363Z,99740.23
2023-04-02T02:00:10.238Z,99744.92
2023-04-02T02:02:38.325Z,99749.29
2023-04-02T02:05:14.775Z,99749.94
2023-04-02T02:07:43.056Z,99752.27
2023-04-02T02:10:14.962Z,99752.60
2023-04-02T02:12:44.801Z,99753.08
2023-04-02T02:15:21.548Z,99761.70
2023-04-02T02:17:54.027Z,99763.77
2023-04-02T02:20:22.638Z,99768.27
2023-04-02T02:22:51.556Z,99763.81
2023-04-02T02:25:22.448Z,99776.84
2023-04-02T02:28:16.072Z,99776.83
2023-04-02T02:30:47.568Z,99783.81
2023-04-02T02:33:26.132Z,99787.30
2023-04-02T02:35:57.167Z,99790.85
2023-04-02T02:38:33.964Z,99797.41
2023-04-02T02:41:07.363Z,99801.52
2023-04-02T02:43:36.069Z,99807.64
2023-04-02T02:46:04.910Z,99811.20
2023-04-02T02:48:37.500Z,99816.59
2023-04-02T02:51:09.936Z,99822.48
2023-04-02T02:53:46.635Z,99823.67
2023-04-02T02:56:14.579Z,99828.70
2023-04-02T02:58:42.638Z,99835.16
2023-04-02T03:01:10.819Z,99837.16
2023-04-02T03:03:39.222Z,99842.67
2023-04-02T03:06:09.793Z,99855.27
2023-04-02T03:08:48.847Z,99854.23
2023-04-02T03:11:19.858Z,99861.03
2023-04-02T03:13:49.855Z,99867.41
2023-04-02T03:16:37.192Z,99870.17
2023-04-02T03:19:31.357Z,99876.95
2023-04-02T03:22:08.091Z,99882.10
2023-04-02T03:24:52.604Z,99884.25
2023-04-02T03:27:24.415Z,99888.19
2023-04-02T03:30:20.801Z,99893.25
2023-04-02T03:32:51.632Z,99892.93
2023-04-02T03:35:23.051Z,99904.39
2023-04-02T03:38:04.067Z,99907.85
2023-04-02T03:40:35.675Z,99909.81
2023-04-02T03:43:13.317Z,99918.67
2023-04-02T03:45:47.408Z,99917.52
2023-04-02T03:48:39.248Z,99921.25
2023-04-02T03:51:11.882Z,99928.51
2023-04-02T03:53:39.835Z,99934.77
2023-04-02T03:56:07.965Z,99941.30
2023-04-02T03:58:43.108Z,99942.90
2023-04-02T04:01:26.586Z,99946.21
2023-04-02T04:03:57.073Z,99953.58
2023-04-02T04:06:31.294Z,99959.92
2023-04-02T04:09:02.166Z,99963.91
2023-04-02T04:11:36.497Z,99967.20
2023-04-02T04:14:11.374Z,99967.67
2023-04-02T04:16:57.966Z,99973.98
2023-04-02T04:19:33.627Z,99978.98
2023-04-02T04:22:20.369Z,99978.92
2023-04-02T04:24:48.515Z,99985.52
2023-04-02T04:27:34.734Z,99991.20
2023-04-02T04:30:18.621Z,99996.82
2023-04-02T04:32:58.262Z,100005.47
2023-04-02T04:35:30.229Z,100010.08
2023-04-02T04:38:14.490Z,100012.39
2023-04-02T04:40:50.606Z,100019.13
2023-04-02T04:43:30.500Z,100022.64
2023-04-02T04:46:13.705Z,100026.52
2023-04-02T04:48:55.992Z,100029.96
2023-04-02T04:51:44.125Z,100034.89
2023-04-02T04:54:15.653Z,100040.48
2023-04-02T04:56:48.760Z,100041.13
2023-04-02T04:59:26.302Z,100050.60
2023-04-02T05:02:06.203Z,100054.41
2023-04-02T05:04:44.853Z,100059.91
2023-04-02T05:07:30.943Z,100062.98
2023-04-02T05:10:04.952Z,100070.57
2023-04-02T05:13:10.191Z,100078.50
2023-04-02T05:16:16.240Z,100082.12
2023-04-02T05:18:50.111Z,100085.31
2023-04-02T05:21:49.006Z,100099.30
2023-04-02T05:24:38.143Z,100098.83
2023-04-02T05:27:16.863Z,100105.85
2023-04-02T05:29:48.637Z,100109.73
2023-04-02T05:32:21.240Z,100107.08
2023-04-02T05:34:53.723Z,100113.02
2023-04-02T05:37:23.846Z,100117.13
2023-04-02T05:39:56.874Z,100121.68
2023-04-02T05:42:32.688Z,100121.91
2023-04-02T05:45:16.567Z,100125.45
2023-04-02T05:47:46.272Z,100128.05
2023-04-02T05:50:44.006Z,100131.24
2023-04-02T05:53:36.816Z,100135.45
2023-04-02T05:56:44.062Z,100140.15
2023-04-02T05:59:32.422Z,100150.48
2023-04-02T06:02:04.653Z,100151.56
2023-04-02T06:04:48.407Z,100154.86
2023-04-02T06:07:33.449Z,100158.59
2023-04-02T06:10:03.456Z,100161.81
2023-04-02T06:12:38.514Z,100166.67
2023-04-02T06:15:10.135Z,100168.52
2023-04-02T06:18:05.192Z,100177.46
2023-04-02T06:20:32.929Z,100177.06
2023-04-02T06:23:08.151Z,100183.94
2023-04-02T06:25:42.208Z,100186.59
2023-04-02T06:28:15.531Z,100196.94
2023-04-02T06:30:47.407Z,100200.79
2023-04-02T06:33:16.086Z,100207.92
2023-04-02T06:35:46.834Z,100210.59
2023-04-02T06:38:21.665Z,100216.39
2023-04-02T06:40:56.947Z,100219.21
2023-04-02T06:43:50.458Z,100217.36
2023-04-02T06:46:19.994Z,100223.51
2023-04-02T06:48:51.557Z,100227.85
2023-04-02T06:51:21.266Z,100234.47
2023-04-02T06:53:50.171Z,100238.52
2023-04-02T06:56:42.822Z,100238.66
2023-04-02T06:59:12.999Z,100244.90
2023-04-02T07:01:49.107Z,100250.45
2023-04-02T07:04:18.581Z,100252.31
2023-04-02T07:06:46.745Z,100255.71
2023-04-02T07:09:14.734Z,100260.20
2023-04-02T07:11:42.479Z,100259.10
2023-04-02T07:14:13.861Z,100264.74
2023-04-02T07:16:42.923Z,100271.73
2023-04-02T07:19:20.115Z,100274.20
2023-04-02T07:21:48.032Z,100275.68
2023-04-02T07:24:16.114Z,100283.40
2023-04-02T07:26:43.922Z,100283.39
2023-04-02T07:29:15.640Z,100285.52
2023-04-02T07:31:44.001Z,100289.02
2023-04-02T07:34:12.164Z,100295.09
2023-04-02T07:36:40.010Z,100298.91
2023-04-02T07:39:07.866Z,100304.33
2023-04-02T07:41:59.768Z,100310.16
2023-04-02T07:44:28.730Z,100315.21
2023-04-02T07:46:56.675Z,100316.75
2023-04-02T07:49:24.789Z,100318.80
2023-04-02T07:51:53.281Z,100326.44
2023-04-02T07:54:21.285Z,100330.66
2023-04-02T07:56:49.105Z,100330.23
2023-04-02T07:59:16.970Z,100336.48
2023-04-02T08:01:44.895Z,100340.27
2023-04-02T08:04:18.971Z,100345.58
2023-04-02T08:06:48.049Z,100350.38
2023-04-02T08:09:17.344Z,100356.11
2023-04-02T08:11:46.739Z,100356.00
2023-04-02T08:14:15.034Z,100359.97
2023-04-02T08:16:47.610Z,100365.23
2023-04-02T08:19:15.740Z,100376.25
2023-04-02T08:21:43.672Z,100377.81
2023-04-02T08:24:11.767Z,100377.87
2023-04-02T08:26:39.498Z,100380.84
2023-04-02T08:29:07.527Z,100388.17
2023-04-02T08:31:35.360Z,100390.40
2023-04-02T08:34:03.567Z,100392.79
2023-04-02T08:36:35.207Z,100399.66
2023-04-02T08:39:04.991Z,100403.86
2023-04-02T08:41:47.258Z,100404.77
2023-04-02T08:44:18.839Z,100401.55
2023-04-02T08:47:01.433Z,100408.73
2023-04-02T08:49:52.977Z,100413.21
2023-04-02T08:52:33.815Z,100413.48
2023-04-02T08:55:02.942Z,100417.83
2023-04-02T08:57:58.995Z,100418.88
2023-04-02T09:00:43.051Z,100423.14
2023-04-02T09:03:22.129Z,100421.13
2023-04-02T09:05:50.993Z,100423.86
2023-04-02T09:08:22.024Z,100425.00
2023-04-02T09:11:21.779Z,100425.67
2023-04-02T09:13:57.059Z,100425.64
2023-04-02T09:16:44.661Z,100429.77
2023-04-02T09:19:17.893Z,100432.55
2023-04-02T09:21:53.176Z,100440.63
2023-04-02T09:24:21.047Z,100440.77
2023-04-02T09:26:49.047Z,100451.89
2023-04-02T09:29:25.606Z,100451.42
2023-04-02T09:32:06.841Z,100457.02
2023-04-02T09:34:36.645Z,100454.52
2023-04-02T09:37:19.912Z,100458.23
2023-04-02T09:39:47.969Z,100466.43
2023-04-02T09:42:34.303Z,100469.14
2023-04-02T09:45:18.881Z,100471.52
2023-04-02T09:47:47.326Z,100482.71
2023-04-02T09:50:21.545Z,100484.09
2023-04-02T09:52:50.771Z,100490.23
2023-04-02T09:55:31.270Z,100497.11
2023-04-02T09:58:14.207Z,100497.13
2023-04-02T10:00:52.959Z,100497.30
2023-04-02T10:03:26.144Z,100501.88
2023-04-02T10:06:10.225Z,100507.79
2023-04-02T10:08:40.870Z,100511.73
2023-04-02T10:11:12.693Z,100513.64
2023-04-02T10:13:49.663Z,100519.69
2023-04-02T10:16:25.661Z,100520.17
2023-04-02T10:18:58.583Z,100524.29
2023-04-02T10:21:29.531Z,100528.95
2023-04-02T10:23:59.657Z,100532.08
2023-04-02T10:26:33.969Z,100537.22
2023-04-02T10:29:04.480Z,100539.02
2023-04-02T10:31:48.638Z,100542.07
2023-04-02T10:34:43.330Z,100546.77
2023-04-02T10:37:31.583Z,100547.44
2023-04-02T10:40:27.728Z,100547.29
2023-04-02T10:43:07.673Z,100548.24
2023-04-02T10:45:40.887Z,100548.76
2023-04-02T10:48:27.090Z,100549.39
2023-04-02T10:51:04.560Z,100548.94
2023-04-02T10:53:58.367Z,100549.10
2023-04-02T10:56:28.489Z,100551.02
2023-04-02T10:59:18.787Z,100553.81
2023-04-02T11:01:48.499Z,100562.95
2023-04-02T11:04:23.793Z,100564.45
2023-04-02T11:07:11.141Z,100566.06
2023-04-02T11:09:44.416Z,100567.46
2023-04-02T11:12:22.204Z,100574.20
2023-04-02T11:14:51.095Z,100578.90
2023-04-02T11:17:19.840Z,100585.59
2023-04-02T11:19:47.903Z,100589.30
2023-04-02T11:22:20.773Z,100590.24
2023-04-02T11:24:51.320Z,100598.95
2023-04-02T11:27:39.416Z,100600.33
2023-04-02T11:30:18.209Z,100603.71
2023-04-02T11:32:49.645Z,100611.49
2023-04-02T11:35:39.107Z,100611.73
2023-04-02T11:38:10.210Z,100615.65
2023-04-02T11:40:45.074Z,100613.59
2023-04-02T11:43:35.743Z,100619.40
2023-04-02T11:46:26.795Z,100614.36
2023-04-02T11:48:55.319Z,100621.63
2023-04-02T11:51:23.493Z,100625.86
2023-04-02T11:53:53.935Z,100628.48
2023-04-02T11:56:32.440Z,100637.36
2023-04-02T11:59:13.134Z,100641.59
2023-04-02T12:02:05.740Z,100651.36
2023-04-02T12:04:46.209Z,100653.84
2023-04-02T12:07:26.892Z,100658.54
2023-04-02T12:09:56.899Z,100659.15
2023-04-02T12:12:24.815Z,100663.64
2023-04-02T12:14:54.795Z,100664.33
2023-04-02T12:17:32.943Z,100667.62
2023-04-02T12:20:23.053Z,100663.81
2023-04-02T12:22:53.968Z,100670.30
2023-04-02T12:25:33.857Z,100670.20
2023-04-02T12:28:10.767Z,100676.77
2023-04-02T12:30:38.901Z,100677.98
2023-04-02T12:33:27.407Z,100680.94
2023-04-02T12:35:58.316Z,100679.60
2023-04-02T12:38:56.382Z,100680.26
2023-04-02T12:41:31.110Z,100676.74
2023-04-02T12:44:03.628Z,100682.27
2023-04-02T12:46:34.136Z,100682.92
2023-04-02T12:49:08.558Z,100682.73
2023-04-02T12:51:37.030Z,100684.11
2023-04-02T12:54:05.632Z,100685.70
2023-04-02T12:56:33.623Z,100688.30
2023-04-02T12:59:01.675Z,100692.45
2023-04-02T13:01:32.144Z,100691.75
2023-04-02T13:04:07.978Z,100692.27
2023-04-02T13:06:36.600Z,100697.21
2023-04-02T13:09:06.721Z,100700.21
2023-04-02T13:11:42.395Z,100705.80
2023-04-02T13:14:21.250Z,100706.29
2023-04-02T13:16:49.504Z,100712.36
2023-04-02T13:19:17.355Z,100710.64
2023-04-02T13:21:46.082Z,100712.58
2023-04-02T13:24:25.019Z,100712.92
2023-04-02T13:26:58.817Z,100711.66
2023-04-02T13:29:31.255Z,100713.50
2023-04-02T13:32:01.761Z,100708.36
2023-04-02T13:34:30.997Z,100714.56
2023-04-02T13:36:59.028Z,100721.02
2023-04-02T13:39:27.495Z,100721.18
2023-04-02T13:42:02.613Z,100718.31
2023-04-02T13:44:32.392Z,100724.57
2023-04-02T13:47:00.853Z,100729.16
2023-04-02T13:49:29.536Z,100727.59
2023-04-02T13:52:00.596Z,100735.29
2023-04-02T13:54:46.905Z,100736.24
2023-04-02T13:57:15.572Z,100739.34
2023-04-02T13:59:46.407Z,100744.38
2023-04-02T14:02:21.102Z,100744.96
2023-04-02T14:04:53.535Z,100749.71
2023-04-02T14:07:38.584Z,100752.23
2023-04-02T14:10:25.578Z,100753.63
2023-04-02T14:13:13.627Z,100751.48
2023-04-02T14:16:36.836Z,100759.77
2023-04-02T14:19:12.927Z,100763.08
2023-04-02T14:21:50.005Z,100762.95
2023-04-02T14:24:23.815Z,100767.61
2023-04-02T14:27:13.539Z,100769.84
2023-04-02T14:29:53.643Z,100769.72
2023-04-02T14:32:27.238Z,100776.39
2023-04-02T14:35:13.734Z,100778.09
2023-04-02T14:38:17.172Z,100779.11
2023-04-02T14:40:51.994Z,100782.33
2023-04-02T14:43:31.880Z,100786.39
2023-04-02T14:46:02.450Z,100786.09
2023-04-02T14:48:52.114Z,100790.38
2023-04-02T14:51:43.609Z,100794.80
2023-04-02T14:54:18.514Z,100798.34
2023-04-02T14:56:53.072Z,100799.35
2023-04-02T14:59:42.731Z,100802.48
2023-04-02T15:02:22.868Z,100807.44
2023-04-02T15:05:01.119Z,100807.76
2023-04-02T15:07:37.671Z,100807.48
2023-04-02T15:10:21.638Z,100811.52
2023-04-02T15:12:49.977Z,100816.13
2023-04-02T15:15:40.022Z,100819.45
2023-04-02T15:18:10.337Z,100818.20
2023-04-02T15:21:00.247Z,100822.98
2023-04-02T15:23:55.362Z,100818.90
2023-04-02T15:26:29.755Z,100827.94
2023-04-02T15:29:29.577Z,100830.70
2023-04-02T15:32:06.428Z,100834.33
2023-04-02T15:34:46.071Z,100835.47
2023-04-02T15:37:16.961Z,100836.30
2023-04-02T15:40:16.810Z,100841.84
2023-04-02T15:42:59.006Z,100842.56
2023-04-02T15:45:49.568Z,100848.59
2023-04-02T15:48:57.002Z,100848.55
2023-04-02T15:51:39.254Z,100847.88
2023-04-02T15:54:43.682Z,100852.02
2023-04-02T15:57:37.002Z,100858.67
2023-04-02T16:00:11.415Z,100856.13
2023-04-02T16:03:08.023Z,100863.57
2023-04-02T16:05:38.811Z,100866.89
2023-04-02T16:08:25.334Z,100872.45
2023-04-02T16:10:53.290Z,100869.87
2023-04-02T16:13:31.226Z,100874.77
2023-04-02T16:16:19.603Z,100874.46
2023-04-02T16:18:51.646Z,100881.29
2023-04-02T16:21:22.637Z,100884.05
2023-04-02T16:23:51.153Z,100886.58
2023-04-02T16:26:22.229Z,100884.90
2023-04-02T16:29:06.117Z,100892.30
2023-04-02T16:31:56.426Z,100895.36
2023-04-02T16:34:33.236Z,100906.40
2023-04-02T16:37:38.760Z,100914.00
2023-04-02T16:40:27.003Z,100916.83
2023-04-02T16:43:04.800Z,100917.02
2023-04-02T16:45:47.557Z,100917.14
2023-04-02T16:48:34.037Z,100919.23
2023-04-02T16:51:11.216Z,100925.85
2023-04-02T16:54:01.409Z,100928.85
2023-04-02T16:56:43.132Z,100934.24
2023-04-02T16:59:35.200Z,100936.49
2023-04-02T17:03:01.389Z,100940.31
2023-04-02T17:05:32.542Z,100945.77
2023-04-02T17:08:26.755Z,100950.71
2023-04-02T17:11:02.660Z,100956.48
2023-04-02T17:13:43.726Z,100962.17
2023-04-02T17:16:22.113Z,100963.62
2023-04-02T17:18:55.502Z,100970.20
2023-04-02T17:21:26.947Z,100971.33
2023-04-02T17:23:57.604Z,100973.11
2023-04-02T17:26:30.305Z,100977.41
2023-04-02T17:29:01.959Z,100975.40
2023-04-02T17:31:35.433Z,100981.16
2023-04-02T17:34:14.582Z,100986.95
2023-04-02T17:37:18.373Z,100993.56
2023-04-02T17:39:56.430Z,100996.84
2023-04-02T17:42:51.057Z,100992.95
2023-04-02T17:45:24.312Z,100996.83
2023-04-02T17:47:55.217Z,100994.33
2023-04-02T17:50:47.798Z,100997.73
2023-04-02T17:53:47.255Z,100998.60
2023-04-02T17:56:35.283Z,101005.33
2023-04-02T17:59:36.575Z,101010.65
2023-04-02T18:02:10.951Z,101013.21
2023-04-02T18:05:00.137Z,101014.17
2023-04-02T18:07:34.215Z,101019.80
2023-04-02T18:10:13.998Z,101025.05
2023-04-02T18:12:49.649Z,101030.68
2023-04-02T18:15:36.846Z,101037.38
2023-04-02T18:18:50.613Z,101041.05
2023-04-02T18:21:37.841Z,101043.40
2023-04-02T18:24:28.775Z,101049.73
2023-04-02T18:27:24.978Z,101055.54
2023-04-02T18:30:01.151Z,101059.20
2023-04-02T18:32:44.357Z,101063.77
2023-04-02T18:35:22.821Z,101067.58
2023-04-02T18:38:24.051Z,101073.95
2023-04-02T18:41:29.785Z,101077.64
2023-04-02T18:44:29.229Z,101082.66
2023-04-02T18:47:19.925Z,101085.48
2023-04-02T18:49:54.321Z,101089.30
2023-04-02T18:52:24.828Z,101090.52
2023-04-02T18:54:57.182Z,101094.52
2023-04-02T18:57:29.763Z,101094.71
2023-04-02T19:00:03.072Z,101102.48
2023-04-02T19:03:06.911Z,101103.77
2023-04-02T19:05:35.658Z,101104.98
2023-04-02T19:08:18.519Z,101109.91
2023-04-02T19:10:50.845Z,101111.95
2023-04-02T19:13:20.279Z,101106.77
2023-04-02T19:16:06.029Z,101116.46
2023-04-02T19:18:54.229Z,101114.73
2023-04-02T19:21:53.875Z,101117.56
2023-04-02T19:24:45.939Z,101119.89
2023-04-02T19:27:34.347Z,101125.45
2023-04-02T19:30:21.035Z,101125.19
2023-04-02T19:33:01.467Z,101130.19
2023-04-02T19:35:36.497Z,101129.27
2023-04-02T19:38:14.783Z,101135.82
2023-04-02T19:40:55.246Z,101135.88
2023-04-02T19:43:23.418Z,101135.46
2023-04-02T19:45:53.370Z,101137.64
2023-04-02T19:48:25.075Z,101140.78
2023-04-02T19:50:53.889Z,101142.26
2023-04-02T19:53:22.042Z,101139.73
2023-04-02T19:55:50.828Z,101145.64
2023-04-02T19:58:25.798Z,101147.08
2023-04-02T20:00:54.897Z,101149.72
2023-04-02T20:03:23.584Z,101153.17
2023-04-02T20:05:51.848Z,101152.55
2023-04-02T20:08:20.869Z,101151.73
2023-04-02T20:10:48.868Z,101158.27
2023-04-02T20:13:16.750Z,101159.90
2023-04-02T20:15:44.722Z,101159.20
2023-04-02T20:18:12.810Z,101160.42
2023-04-02T20:20:40.840Z,101162.04
2023-04-02T20:23:09.349Z,101164.06
2023-04-02T20:25:37.445Z,101168.85
2023-04-02T20:28:05.322Z,101166.41
2023-04-02T20:30:33.517Z,101171.98
2023-04-02T20:33:01.468Z,101178.80
2023-04-02T20:35:31.134Z,101180.51
2023-04-02T20:37:59.677Z,101189.92
2023-04-02T20:40:27.656Z,101187.96
2023-04-02T20:42:55.372Z,101191.45
2023-04-02T20:45:24.609Z,101194.84
2023-04-02T20:47:52.658Z,101199.23
2023-04-02T20:50:20.718Z,101202.25
2023-04-02T20:52:48.910Z,101205.48
2023-04-02T20:55:16.930Z,101201.86
2023-04-02T20:57:44.700Z,101207.51
2023-04-02T21:00:14.481Z,101204.69
2023-04-02T21:02:42.904Z,101210.77
2023-04-02T21:05:11.237Z,101212.70
2023-04-02T21:07:39.201Z,101217.06
2023-04-02T21:10:07.454Z,101220.61
2023-04-02T21:12:35.322Z,101220.92
2023-04-02T21:15:03.628Z,101226.81
2023-04-02T21:17:31.697Z,101232.51
2023-04-02T21:19:59.631Z,101232.71
2023-04-02T21:22:27.837Z,101232.73
2023-04-02T21:24:56.422Z,101234.98
2023-04-02T21:27:26.136Z,101235.23
2023-04-02T21:29:54.142Z,101237.33
2023-04-02T21:32:22.426Z,101242.09
2023-04-02T21:35:09.568Z,101240.06
2023-04-02T21:37:37.553Z,101249.45
2023-04-02T21:40:06.481Z,101246.89
2023-04-02T21:42:34.347Z,101251.05
2023-04-02T21:45:03.088Z,101253.66
2023-04-02T21:47:31.066Z,101260.98
2023-04-02T21:49:58.916Z,101259.80
2023-04-02T21:52:26.946Z,101259.00
2023-04-02T21:54:54.800Z,101264.63
2023-04-02T21:57:22.843Z,101257.73
2023-04-02T21:59:50.796Z,101264.20
2023-04-02T22:02:18.781Z,101266.58
2023-04-02T22:04:46.839Z,101270.92
2023-04-02T22:07:14.740Z,101274.58
2023-04-02T22:09:42.500Z,101279.29
2023-04-02T22:12:11.407Z,101273.42
2023-04-02T22:14:39.187Z,101281.34
2023-04-02T22:17:07.681Z,101280.48
2023-04-02T22:19:35.876Z,101280.20
2023-04-02T22:22:06.034Z,101282.33
2023-04-02T22:24:34.049Z,101286.64
2023-04-02T22:27:02.088Z,101293.05
2023-04-02T22:29:30.307Z,101287.77
2023-04-02T22:31:58.087Z,101286.13
2023-04-02T22:34:26.048Z,101287.02
2023-04-02T22:36:53.940Z,101285.38
2023-04-02T22:39:21.765Z,101291.88
2023-04-02T22:41:49.463Z,101284.08
2023-04-02T22:44:17.425Z,101287.60
2023-04-02T22:46:45.164Z,101285.91
2023-04-02T22:49:19.217Z,101289.27
2023-04-02T22:51:47.889Z,101294.23
2023-04-02T22:54:15.983Z,101288.98
2023-04-02T22:56:43.843Z,101295.14
2023-04-02T22:59:11.967Z,101297.20
2023-04-02T23:01:40.212Z,101296.61
2023-04-02T23:04:08.683Z,101303.58
2023-04-02T23:06:36.577Z,101303.96
2023-04-02T23:09:04.520Z,101301.13
2023-04-02T23:11:32.408Z,101304.86
2023-04-02T23:14:00.457Z,101305.20
2023-04-02T23:16:29.201Z,101306.66
2023-04-02T23:18:58.166Z,101314.45
2023-04-02T23:21:26.773Z,101322.27
2023-04-02T23:23:54.975Z,101321.78
2023-04-02T23:26:29.757Z,101326.86
2023-04-02T23:28:59.276Z,101328.63
2023-04-02T23:31:27.511Z,101333.98
2023-04-02T23:33:55.905Z,101331.27
2023-04-02T23:36:26.376Z,101331.70
2023-04-02T23:38:56.674Z,101335.92
2023-04-02T23:41:27.133Z,101336.17
2023-04-02T23:43:58.972Z,101332.64
2023-04-02T23:46:27.413Z,101332.84
2023-04-02T23:48:56.267Z,101338.12
2023-04-02T23:51:24.824Z,101338.39
2023-04-02T23:53:55.459Z,101341.80
2023-04-02T23:56:24.213Z,101342.83
2023-04-02T23:58:52.145Z,101343.66
